Time;durP1;ratioP1;P1;durP2;ratioP2;P2;SDS_P1;SDS_P2;PMS_P1;PMS_P2;Temp;Humidity;BMP_temperature;BMP_pressure;BME280_temperature;BME280_humidity;BME280_pressure;Samples;Min_cycle;Max_cycle;Signal;HPM_P1;HPM_P2
2023/07/28 00:00:52;;;;;;;;;;;22.80;49.90;;;;;;1571457;74;789;-53
2023/07/28 00:02:54;;;;;;;;;;;22.80;49.90;;;;;;1575747;73;664;-53
2023/07/28 00:04:56;;;;;;;;;;;22.80;49.90;;;;;;1571645;74;683;-53
2023/07/28 00:06:58;;;;;;;;;;;22.80;49.80;;;;;;1578295;73;1464;-51
2023/07/28 00:09:00;;;;;;;;;;;22.80;49.80;;;;;;1572987;73;1141;-53
2023/07/28 00:11:02;;;;;;;;;;;22.80;49.70;;;;;;1581469;74;1918;-54
2023/07/28 00:13:04;;;;;;;;;;;22.80;49.60;;;;;;1589134;73;726;-53
2023/07/28 00:15:06;;;;;;;;;;;22.70;49.60;;;;;;1579608;73;738;-54
2023/07/28 00:17:08;;;;;;;;;;;22.80;49.50;;;;;;1591520;73;826;-54
2023/07/28 00:19:10;;;;;;;;;;;22.80;49.50;;;;;;1586296;73;1106;-55
2023/07/28 00:21:11;;;;;;;;;;;22.70;49.50;;;;;;1604658;72;1538;-54
2023/07/28 00:23:13;;;;;;;;;;;22.70;49.70;;;;;;1584945;73;791;-52
2023/07/28 00:25:15;;;;;;;;;;;22.80;49.70;;;;;;1572726;73;785;-54
2023/07/28 00:27:18;;;;;;;;;;;22.80;49.60;;;;;;1594906;74;793;-54
2023/07/28 00:29:20;;;;;;;;;;;22.80;49.70;;;;;;1584352;74;1187;-50
2023/07/28 00:31:22;;;;;;;;;;;22.80;49.70;;;;;;1576960;73;1926;-54
2023/07/28 00:33:23;;;;;;;;;;;22.80;49.60;;;;;;1588345;73;741;-54
2023/07/28 00:35:25;;;;;;;;;;;22.70;49.50;;;;;;1583373;73;1530;-54
2023/07/28 00:37:27;;;;;;;;;;;22.80;49.50;;;;;;1582291;74;906;-54
2023/07/28 00:39:29;;;;;;;;;;;22.80;49.50;;;;;;1592227;74;1130;-52
2023/07/28 00:41:31;;;;;;;;;;;22.70;49.40;;;;;;1593275;73;696;-53
2023/07/28 00:43:33;;;;;;;;;;;22.80;49.40;;;;;;1577612;73;785;-51
2023/07/28 00:45:35;;;;;;;;;;;22.80;49.40;;;;;;1574435;73;769;-54
2023/07/28 00:47:37;;;;;;;;;;;22.80;49.30;;;;;;1580534;74;759;-52
2023/07/28 00:49:40;;;;;;;;;;;22.70;49.30;;;;;;1572709;74;1364;-53
2023/07/28 00:51:41;;;;;;;;;;;22.80;49.20;;;;;;1582053;73;1935;-52
2023/07/28 00:53:43;;;;;;;;;;;22.70;49.10;;;;;;1572986;73;780;-55
2023/07/28 00:55:46;;;;;;;;;;;22.70;49.00;;;;;;1586295;73;746;-55
2023/07/28 00:57:48;;;;;;;;;;;22.80;49.00;;;;;;1582889;73;785;-55
2023/07/28 00:59:49;;;;;;;;;;;22.70;49.10;;;;;;1588899;73;1111;-55
2023/07/28 01:01:51;;;;;;;;;;;22.70;49.10;;;;;;1582697;73;679;-55
2023/07/28 01:03:53;;;;;;;;;;;22.70;49.10;;;;;;1581428;73;1519;-54
2023/07/28 01:06:09;;;;;;;;;;;22.80;49.00;;;;;;1574759;73;728;-54
2023/07/28 01:08:18;;;;;;;;;;;22.70;49.00;;;;;;1588943;73;1812;-51
2023/07/28 01:10:21;;;;;;;;;;;22.70;49.00;;;;;;1580939;73;775;-54
2023/07/28 01:12:24;;;;;;;;;;;22.80;48.90;;;;;;1590331;73;1938;-53
2023/07/28 01:14:26;;;;;;;;;;;22.80;48.90;;;;;;1583665;73;718;-52
2023/07/28 01:16:27;;;;;;;;;;;22.70;48.90;;;;;;1577985;74;781;-54
2023/07/28 01:18:29;;;;;;;;;;;22.70;48.80;;;;;;1582614;73;1400;-51
2023/07/28 01:20:32;;;;;;;;;;;22.80;48.80;;;;;;1585941;73;670;-55
2023/07/28 01:22:52;;;;;;;;;;;22.80;48.70;;;;;;1585814;74;779;-54
2023/07/28 01:25:05;;;;;;;;;;;22.70;48.60;;;;;;1591906;73;747;-51
2023/07/28 01:27:07;;;;;;;;;;;22.80;48.80;;;;;;1577256;73;1129;-48
2023/07/28 01:29:09;;;;;;;;;;;22.80;48.70;;;;;;1585609;73;1187;-54
2023/07/28 01:31:11;;;;;;;;;;;22.70;48.60;;;;;;1578067;73;1390;-51
2023/07/28 01:33:12;;;;;;;;;;;22.70;48.70;;;;;;1588596;74;1939;-52
2023/07/28 01:35:14;;;;;;;;;;;22.70;48.70;;;;;;1571529;73;652;-52
2023/07/28 01:37:16;;;;;;;;;;;22.70;48.70;;;;;;1590147;73;668;-53
2023/07/28 01:39:18;;;;;;;;;;;22.70;48.60;;;;;;1577648;73;1135;-53
2023/07/28 01:41:20;;;;;;;;;;;22.70;48.60;;;;;;1593487;73;776;-52
2023/07/28 01:43:22;;;;;;;;;;;22.80;48.60;;;;;;1575204;73;764;-53
2023/07/28 01:45:24;;;;;;;;;;;22.70;48.60;;;;;;1582589;73;1396;-53
2023/07/28 01:47:25;;;;;;;;;;;22.70;48.60;;;;;;1580785;73;750;-50
2023/07/28 01:49:27;;;;;;;;;;;22.80;48.60;;;;;;1584991;73;1114;-54
2023/07/28 01:51:29;;;;;;;;;;;22.80;48.60;;;;;;1577946;74;1936;-52
2023/07/28 01:53:31;;;;;;;;;;;22.70;48.60;;;;;;1578533;73;720;-54
2023/07/28 01:55:33;;;;;;;;;;;22.70;48.50;;;;;;1582393;74;1112;-52
2023/07/28 01:57:35;;;;;;;;;;;22.70;48.50;;;;;;1577311;73;663;-53
2023/07/28 01:59:37;;;;;;;;;;;22.70;48.40;;;;;;1576964;73;1625;-52
2023/07/28 02:01:39;;;;;;;;;;;22.80;48.40;;;;;;1584643;73;707;-51
2023/07/28 02:03:41;;;;;;;;;;;22.70;48.30;;;;;;1570801;73;685;-50
2023/07/28 02:05:44;;;;;;;;;;;22.70;48.30;;;;;;1575228;73;740;-54
2023/07/28 02:07:46;;;;;;;;;;;22.80;48.20;;;;;;1570491;74;615;-54
2023/07/28 02:09:48;;;;;;;;;;;22.70;48.20;;;;;;1577180;73;1273;-53
2023/07/28 02:11:50;;;;;;;;;;;22.70;48.30;;;;;;1572513;73;1939;-52
2023/07/28 02:13:52;;;;;;;;;;;22.70;48.30;;;;;;1578069;73;1505;-52
2023/07/28 02:15:53;;;;;;;;;;;22.70;48.30;;;;;;1581568;73;777;-49
2023/07/28 02:17:55;;;;;;;;;;;22.70;48.30;;;;;;1582559;73;723;-54
2023/07/28 02:19:57;;;;;;;;;;;22.70;48.20;;;;;;1596460;73;1234;-54
2023/07/28 02:21:59;;;;;;;;;;;22.70;48.20;;;;;;1584212;73;781;-53
2023/07/28 02:24:01;;;;;;;;;;;22.70;48.20;;;;;;1582867;73;728;-53
2023/07/28 02:26:03;;;;;;;;;;;22.70;48.20;;;;;;1579880;73;802;-52
2023/07/28 02:28:05;;;;;;;;;;;22.70;48.20;;;;;;1577335;73;1540;-49
2023/07/28 02:30:07;;;;;;;;;;;22.80;48.50;;;;;;1574929;73;767;-51
2023/07/28 02:32:09;;;;;;;;;;;22.70;48.20;;;;;;1585658;73;1899;-52
2023/07/28 02:34:11;;;;;;;;;;;22.70;48.10;;;;;;1571534;73;785;-50
2023/07/28 02:36:13;;;;;;;;;;;22.70;48.10;;;;;;1577129;73;783;-53
2023/07/28 02:38:14;;;;;;;;;;;22.70;48.10;;;;;;1583063;73;1170;-54
2023/07/28 02:40:16;;;;;;;;;;;22.70;48.00;;;;;;1581084;73;692;-55
2023/07/28 02:42:18;;;;;;;;;;;22.70;47.90;;;;;;1582351;73;1329;-54
2023/07/28 02:44:20;;;;;;;;;;;22.70;48.00;;;;;;1582372;73;693;-54
2023/07/28 02:46:22;;;;;;;;;;;22.70;48.00;;;;;;1586526;73;672;-52
2023/07/28 02:48:24;;;;;;;;;;;22.60;48.00;;;;;;1576148;73;1127;-50
2023/07/28 02:50:26;;;;;;;;;;;22.70;47.90;;;;;;1583565;73;727;-49
2023/07/28 02:52:28;;;;;;;;;;;22.70;47.90;;;;;;1584504;73;1949;-54
2023/07/28 02:54:30;;;;;;;;;;;22.60;47.90;;;;;;1589418;73;768;-53
2023/07/28 02:56:34;;;;;;;;;;;22.70;48.00;;;;;;1582276;74;1553;-54
2023/07/28 02:58:35;;;;;;;;;;;22.70;48.00;;;;;;1574395;73;1664;-53
2023/07/28 03:00:40;;;;;;;;;;;22.70;48.00;;;;;;1572798;74;710;-51
2023/07/28 03:02:42;;;;;;;;;;;22.70;48.00;;;;;;1587868;73;729;-54
2023/07/28 03:04:44;;;;;;;;;;;22.70;48.00;;;;;;1583769;73;758;-53
2023/07/28 03:06:46;;;;;;;;;;;22.70;48.00;;;;;;1582527;73;729;-53
2023/07/28 03:08:48;;;;;;;;;;;22.70;48.00;;;;;;1584775;74;1140;-52
2023/07/28 03:10:50;;;;;;;;;;;22.70;48.00;;;;;;1578766;73;1185;-53
2023/07/28 03:12:52;;;;;;;;;;;22.70;47.90;;;;;;1585476;73;1924;-54
2023/07/28 03:14:54;;;;;;;;;;;22.70;47.90;;;;;;1583061;73;717;-51
2023/07/28 03:16:56;;;;;;;;;;;22.70;48.00;;;;;;1581532;73;661;-51
2023/07/28 03:18:58;;;;;;;;;;;22.70;48.10;;;;;;1586690;73;1213;-52
2023/07/28 03:21:00;;;;;;;;;;;22.70;48.20;;;;;;1581508;73;653;-50
2023/07/28 03:23:02;;;;;;;;;;;22.70;48.30;;;;;;1585500;73;704;-53
2023/07/28 03:25:03;;;;;;;;;;;22.70;48.30;;;;;;1593952;73;1486;-52
2023/07/28 03:27:06;;;;;;;;;;;22.70;48.30;;;;;;1581871;73;611;-53
2023/07/28 03:29:07;;;;;;;;;;;22.60;48.10;;;;;;1581937;73;1198;-50
2023/07/28 03:31:09;;;;;;;;;;;22.70;48.10;;;;;;1581154;73;705;-52
2023/07/28 03:33:11;;;;;;;;;;;22.70;48.10;;;;;;1569635;73;1930;-52
2023/07/28 03:35:13;;;;;;;;;;;22.70;48.10;;;;;;1579804;73;711;-54
2023/07/28 03:37:15;;;;;;;;;;;22.70;48.10;;;;;;1574937;73;769;-53
2023/07/28 03:39:17;;;;;;;;;;;22.70;48.10;;;;;;1578339;73;1914;-50
2023/07/28 03:41:19;;;;;;;;;;;22.70;48.20;;;;;;1585833;74;762;-55
2023/07/28 03:43:21;;;;;;;;;;;22.70;48.20;;;;;;1578491;73;807;-55
2023/07/28 03:45:23;;;;;;;;;;;22.70;48.20;;;;;;1576516;73;698;-54
2023/07/28 03:47:25;;;;;;;;;;;22.70;48.20;;;;;;1580150;73;657;-53
2023/07/28 03:49:27;;;;;;;;;;;22.70;48.10;;;;;;1576593;74;1149;-52
2023/07/28 03:51:28;;;;;;;;;;;22.80;48.40;;;;;;1590256;74;752;-53
2023/07/28 03:53:30;;;;;;;;;;;22.80;48.30;;;;;;1577424;73;1934;-52
2023/07/28 03:55:32;;;;;;;;;;;22.80;48.30;;;;;;1586903;73;933;-53
2023/07/28 03:57:34;;;;;;;;;;;22.70;48.40;;;;;;1580393;73;722;-54
2023/07/28 03:59:36;;;;;;;;;;;22.70;48.20;;;;;;1590044;73;1069;-54
2023/07/28 04:01:38;;;;;;;;;;;22.70;48.20;;;;;;1592731;73;703;-52
2023/07/28 04:03:40;;;;;;;;;;;22.80;48.20;;;;;;1583822;73;762;-51
2023/07/28 04:05:42;;;;;;;;;;;22.80;48.20;;;;;;1574834;73;746;-51
2023/07/28 04:07:44;;;;;;;;;;;22.70;48.20;;;;;;1579483;73;1275;-55
2023/07/28 04:09:45;;;;;;;;;;;22.80;48.30;;;;;;1585766;73;1157;-54
2023/07/28 04:11:47;;;;;;;;;;;22.70;48.30;;;;;;1570165;73;936;-55
2023/07/28 04:13:49;;;;;;;;;;;22.70;48.30;;;;;;1577776;73;1936;-55
2023/07/28 04:15:51;;;;;;;;;;;22.70;48.30;;;;;;1584993;73;690;-54
2023/07/28 04:17:53;;;;;;;;;;;22.70;48.20;;;;;;1575343;73;868;-52
2023/07/28 04:19:55;;;;;;;;;;;22.70;48.20;;;;;;1583433;73;1503;-52
2023/07/28 04:22:00;;;;;;;;;;;22.70;48.20;;;;;;1578484;73;713;-55
2023/07/28 04:24:02;;;;;;;;;;;22.70;48.20;;;;;;1578162;73;718;-54
2023/07/28 04:26:04;;;;;;;;;;;22.70;48.30;;;;;;1587366;73;828;-53
2023/07/28 04:28:06;;;;;;;;;;;22.70;48.30;;;;;;1580282;73;1171;-51
2023/07/28 04:30:08;;;;;;;;;;;22.70;48.30;;;;;;1587643;73;959;-55
2023/07/28 04:32:10;;;;;;;;;;;22.70;48.30;;;;;;1570726;73;718;-54
2023/07/28 04:34:11;;;;;;;;;;;22.70;48.30;;;;;;1580140;73;1934;-52
2023/07/28 04:36:13;;;;;;;;;;;22.70;48.30;;;;;;1587122;74;717;-54
2023/07/28 04:38:17;;;;;;;;;;;22.70;48.40;;;;;;1578487;73;1160;-53
2023/07/28 04:40:19;;;;;;;;;;;22.70;48.40;;;;;;1575537;74;709;-52
2023/07/28 04:42:21;;;;;;;;;;;22.70;48.40;;;;;;1585958;73;754;-53
2023/07/28 04:44:23;;;;;;;;;;;22.70;48.40;;;;;;1577080;73;791;-51
2023/07/28 04:46:25;;;;;;;;;;;22.70;48.40;;;;;;1581993;73;730;-50
2023/07/28 04:48:27;;;;;;;;;;;22.70;48.40;;;;;;1587486;73;1669;-51
2023/07/28 04:50:29;;;;;;;;;;;22.70;48.40;;;;;;1580452;74;747;-52
2023/07/28 04:52:31;;;;;;;;;;;22.70;48.50;;;;;;1583124;73;1917;-53
2023/07/28 04:54:33;;;;;;;;;;;22.70;48.50;;;;;;1578626;74;816;-54
2023/07/28 04:56:34;;;;;;;;;;;22.80;48.60;;;;;;1581592;73;746;-52
2023/07/28 04:58:36;;;;;;;;;;;22.70;48.60;;;;;;1593567;73;1134;-53
2023/07/28 05:00:38;;;;;;;;;;;22.80;48.60;;;;;;1590957;73;675;-50
2023/07/28 05:02:40;;;;;;;;;;;22.70;48.70;;;;;;1581519;73;1512;-53
2023/07/28 05:04:42;;;;;;;;;;;22.70;48.80;;;;;;1574685;73;691;-53
2023/07/28 05:06:44;;;;;;;;;;;22.70;48.90;;;;;;1569902;73;774;-53
2023/07/28 05:08:46;;;;;;;;;;;22.70;49.00;;;;;;1577716;73;1146;-54
2023/07/28 05:10:47;;;;;;;;;;;22.70;49.00;;;;;;1582814;73;691;-54
2023/07/28 05:12:49;;;;;;;;;;;22.70;49.10;;;;;;1587406;73;1931;-52
2023/07/28 05:14:51;;;;;;;;;;;22.70;49.10;;;;;;1581340;73;746;-50
2023/07/28 05:16:53;;;;;;;;;;;22.70;49.30;;;;;;1587549;73;1295;-53
2023/07/28 05:18:55;;;;;;;;;;;22.70;49.30;;;;;;1582318;73;1301;-54
2023/07/28 05:20:57;;;;;;;;;;;22.70;49.50;;;;;;1574326;73;705;-54
2023/07/28 05:22:59;;;;;;;;;;;22.80;49.50;;;;;;1594926;73;799;-53
2023/07/28 05:25:01;;;;;;;;;;;22.70;49.40;;;;;;1591704;73;728;-52
2023/07/28 05:27:03;;;;;;;;;;;22.80;49.50;;;;;;1575807;73;843;-54
2023/07/28 05:29:05;;;;;;;;;;;22.70;49.60;;;;;;1575793;73;1206;-54
2023/07/28 05:31:07;;;;;;;;;;;22.80;49.60;;;;;;1582230;73;1472;-51
2023/07/28 05:33:08;;;;;;;;;;;22.70;49.60;;;;;;1580762;73;1920;-50
2023/07/28 05:35:10;;;;;;;;;;;22.80;49.50;;;;;;1576648;73;729;-54
2023/07/28 05:37:12;;;;;;;;;;;22.80;49.40;;;;;;1585991;73;727;-51
2023/07/28 05:39:14;;;;;;;;;;;22.70;49.50;;;;;;1578921;73;1149;-53
2023/07/28 05:41:16;;;;;;;;;;;22.80;49.60;;;;;;1589885;73;701;-51
2023/07/28 05:43:18;;;;;;;;;;;22.80;49.70;;;;;;1585566;73;720;-52
2023/07/28 05:45:20;;;;;;;;;;;22.80;49.60;;;;;;1571956;73;1426;-52
2023/07/28 05:47:22;;;;;;;;;;;22.80;49.60;;;;;;1577886;73;784;-49
2023/07/28 05:49:24;;;;;;;;;;;22.70;49.70;;;;;;1576205;74;1133;-53
2023/07/28 05:51:26;;;;;;;;;;;22.80;49.60;;;;;;1576423;74;703;-53
2023/07/28 05:53:28;;;;;;;;;;;22.80;49.60;;;;;;1580257;74;1925;-52
2023/07/28 05:55:30;;;;;;;;;;;22.80;49.50;;;;;;1583349;73;939;-53
2023/07/28 05:57:31;;;;;;;;;;;22.70;49.40;;;;;;1575559;73;754;-52
2023/07/28 05:59:33;;;;;;;;;;;22.80;49.50;;;;;;1587498;73;1539;-52
2023/07/28 06:01:35;;;;;;;;;;;22.80;49.60;;;;;;1580720;73;747;-52
2023/07/28 06:03:37;;;;;;;;;;;22.80;49.70;;;;;;1586248;72;770;-52
2023/07/28 06:05:40;;;;;;;;;;;22.80;49.60;;;;;;1581458;73;700;-49
2023/07/28 06:07:42;;;;;;;;;;;22.80;49.50;;;;;;1595312;73;721;-52
2023/07/28 06:09:44;;;;;;;;;;;22.80;49.50;;;;;;1582512;74;1445;-49
2023/07/28 06:11:46;;;;;;;;;;;22.80;49.60;;;;;;1586192;74;696;-49
2023/07/28 06:13:48;;;;;;;;;;;22.80;49.70;;;;;;1574867;73;1974;-53
2023/07/28 06:15:49;;;;;;;;;;;22.80;49.70;;;;;;1589879;73;671;-52
2023/07/28 06:17:52;;;;;;;;;;;22.80;49.60;;;;;;1578075;73;706;-53
2023/07/28 06:19:54;;;;;;;;;;;22.80;49.50;;;;;;1582856;73;1156;-53
2023/07/28 06:21:55;;;;;;;;;;;22.80;49.50;;;;;;1588433;73;664;-52
2023/07/28 06:23:57;;;;;;;;;;;22.70;49.60;;;;;;1578827;73;781;-51
2023/07/28 06:25:59;;;;;;;;;;;22.80;49.70;;;;;;1584400;74;758;-51
2023/07/28 06:28:01;;;;;;;;;;;22.80;49.70;;;;;;1572744;74;1529;-52
2023/07/28 06:30:03;;;;;;;;;;;22.80;49.60;;;;;;1584447;73;729;-50
2023/07/28 06:32:05;;;;;;;;;;;22.80;49.70;;;;;;1595349;73;829;-53
2023/07/28 06:34:07;;;;;;;;;;;22.80;49.70;;;;;;1582875;73;1949;-53
2023/07/28 06:36:09;;;;;;;;;;;22.80;49.80;;;;;;1586683;73;697;-51
2023/07/28 06:38:11;;;;;;;;;;;22.80;49.90;;;;;;1587818;73;1145;-55
2023/07/28 06:40:13;;;;;;;;;;;22.80;50.00;;;;;;1589246;73;853;-55
2023/07/28 06:42:16;;;;;;;;;;;22.80;50.00;;;;;;1580092;73;1664;-54
2023/07/28 06:44:18;;;;;;;;;;;22.90;50.10;;;;;;1578057;73;721;-51
2023/07/28 06:46:20;;;;;;;;;;;22.90;50.10;;;;;;1585577;74;732;-55
2023/07/28 06:48:22;;;;;;;;;;;22.90;50.10;;;;;;1587791;74;1138;-54
2023/07/28 06:50:24;;;;;;;;;;;22.90;50.20;;;;;;1583811;74;753;-49
2023/07/28 06:52:26;;;;;;;;;;;22.90;50.20;;;;;;1585108;74;811;-50
2023/07/28 06:54:27;;;;;;;;;;;22.90;50.10;;;;;;1587257;74;1907;-55
2023/07/28 06:56:29;;;;;;;;;;;22.90;50.00;;;;;;1590449;73;1691;-55
2023/07/28 06:58:31;;;;;;;;;;;22.90;50.10;;;;;;1584561;73;1164;-52
2023/07/28 07:00:33;;;;;;;;;;;22.90;50.30;;;;;;1578114;73;830;-49
2023/07/28 07:02:35;;;;;;;;;;;22.90;50.00;;;;;;1593615;73;714;-55
2023/07/28 07:04:37;;;;;;;;;;;22.90;49.80;;;;;;1584671;73;845;-51
2023/07/28 07:06:39;;;;;;;;;;;22.90;49.90;;;;;;1584299;73;728;-55
2023/07/28 07:08:41;;;;;;;;;;;23.00;50.00;;;;;;1575845;73;1569;-54
2023/07/28 07:10:50;;;;;;;;;;;22.90;50.20;;;;;;1574213;73;713;-53
2023/07/28 07:12:52;;;;;;;;;;;23.00;50.00;;;;;;1588924;73;711;-55
2023/07/28 07:14:54;;;;;;;;;;;23.00;49.80;;;;;;1578731;73;1918;-55
2023/07/28 07:16:56;;;;;;;;;;;22.90;50.10;;;;;;1520827;77;717;-50
2023/07/28 07:18:58;;;;;;;;;;;22.90;49.90;;;;;;1542381;75;1169;-53
2023/07/28 07:21:06;;;;;;;;;;;23.00;49.80;;;;;;1538072;75;690;-55
2023/07/28 07:23:07;;;;;;;;;;;23.00;49.70;;;;;;1533653;75;1541;-54
2023/07/28 07:25:09;;;;;;;;;;;23.00;49.90;;;;;;1545433;75;947;-54
2023/07/28 07:27:11;;;;;;;;;;;23.00;49.70;;;;;;1549684;75;783;-52
2023/07/28 07:29:13;;;;;;;;;;;23.00;49.60;;;;;;1553305;75;1188;-55
2023/07/28 07:31:15;;;;;;;;;;;23.00;49.60;;;;;;1544743;75;778;-53
2023/07/28 07:33:17;;;;;;;;;;;23.00;49.80;;;;;;1545744;75;652;-50
2023/07/28 07:35:19;;;;;;;;;;;23.10;49.90;;;;;;1540907;75;1920;-54
2023/07/28 07:37:21;;;;;;;;;;;23.10;49.70;;;;;;1543504;75;1573;-52
2023/07/28 07:39:22;;;;;;;;;;;23.00;49.60;;;;;;1544068;75;1161;-50
2023/07/28 07:41:24;;;;;;;;;;;23.00;49.70;;;;;;1578780;75;657;-52
2023/07/28 07:43:26;;;;;;;;;;;23.00;49.60;;;;;;1537572;75;770;-52
2023/07/28 07:45:28;;;;;;;;;;;23.00;49.50;;;;;;1552239;75;806;-53
2023/07/28 07:47:30;;;;;;;;;;;23.00;49.60;;;;;;1532849;75;699;-54
2023/07/28 07:49:32;;;;;;;;;;;23.00;49.50;;;;;;1535217;76;1105;-54
2023/07/28 07:51:35;;;;;;;;;;;23.00;49.50;;;;;;1542212;76;1188;-51
2023/07/28 07:53:37;;;;;;;;;;;23.00;49.50;;;;;;1546954;75;754;-54
2023/07/28 07:55:39;;;;;;;;;;;23.00;49.60;;;;;;1532220;75;756;-54
2023/07/28 07:57:41;;;;;;;;;;;23.00;49.60;;;;;;1531073;76;905;-50
2023/07/28 07:59:42;;;;;;;;;;;23.00;49.50;;;;;;1539071;75;1142;-54
2023/07/28 08:01:44;;;;;;;;;;;23.00;49.50;;;;;;1545239;76;712;-55
2023/07/28 08:03:46;;;;;;;;;;;23.00;49.60;;;;;;1540115;76;740;-52
2023/07/28 08:05:48;;;;;;;;;;;23.00;49.70;;;;;;1543516;75;1506;-50
2023/07/28 08:07:50;;;;;;;;;;;23.00;49.50;;;;;;1541839;75;734;-55
2023/07/28 08:09:52;;;;;;;;;;;23.00;49.60;;;;;;1543000;75;1229;-55
2023/07/28 08:11:54;;;;;;;;;;;23.00;49.50;;;;;;1536623;75;731;-52
2023/07/28 08:13:56;;;;;;;;;;;23.00;49.80;;;;;;1533613;75;1936;-53
2023/07/28 08:15:58;;;;;;;;;;;23.10;49.90;;;;;;1541413;75;779;-50
2023/07/28 08:18:00;;;;;;;;;;;23.00;49.70;;;;;;1549150;75;1180;-54
2023/07/28 08:20:02;;;;;;;;;;;23.00;49.70;;;;;;1541635;75;1330;-53
2023/07/28 08:22:04;;;;;;;;;;;23.00;49.70;;;;;;1551462;75;758;-53
2023/07/28 08:24:06;;;;;;;;;;;23.00;49.60;;;;;;1547848;76;800;-52
2023/07/28 08:26:08;;;;;;;;;;;23.00;49.60;;;;;;1544193;75;842;-54
2023/07/28 08:28:10;;;;;;;;;;;23.00;49.60;;;;;;1544461;75;1139;-52
2023/07/28 08:30:12;;;;;;;;;;;23.00;49.50;;;;;;1545767;75;754;-52
2023/07/28 08:32:13;;;;;;;;;;;23.00;49.60;;;;;;1533975;76;899;-56
2023/07/28 08:34:17;;;;;;;;;;;23.00;49.60;;;;;;1533675;76;1972;-54
2023/07/28 08:36:19;;;;;;;;;;;23.10;49.60;;;;;;1550167;75;731;-53
2023/07/28 08:38:21;;;;;;;;;;;23.00;49.50;;;;;;1545939;75;1134;-53
2023/07/28 08:40:24;;;;;;;;;;;23.00;49.50;;;;;;1539074;75;1094;-54
2023/07/28 08:42:26;;;;;;;;;;;23.00;49.50;;;;;;1554114;75;1275;-55
2023/07/28 08:44:32;;;;;;;;;;;23.10;49.70;;;;;;1557864;75;1335;-54
2023/07/28 08:46:35;;;;;;;;;;;23.10;49.70;;;;;;1540411;75;1114;-54
2023/07/28 08:48:37;;;;;;;;;;;23.10;49.70;;;;;;1540705;75;1542;-55
2023/07/28 08:50:39;;;;;;;;;;;23.10;49.70;;;;;;1544262;75;1479;-55
2023/07/28 08:52:41;;;;;;;;;;;23.10;49.80;;;;;;1528777;76;1495;-55
2023/07/28 08:54:43;;;;;;;;;;;23.00;49.70;;;;;;1542886;75;1911;-55
2023/07/28 08:56:45;;;;;;;;;;;23.00;49.70;;;;;;1542286;75;1442;-55
2023/07/28 08:58:47;;;;;;;;;;;23.00;49.70;;;;;;1546081;75;1607;-54
2023/07/28 09:00:49;;;;;;;;;;;23.10;50.00;;;;;;1547248;75;1106;-54
2023/07/28 09:02:51;;;;;;;;;;;23.10;50.00;;;;;;1544959;75;1492;-54
2023/07/28 09:04:53;;;;;;;;;;;23.00;49.90;;;;;;1543192;75;1513;-55
2023/07/28 09:06:55;;;;;;;;;;;23.00;49.90;;;;;;1554143;75;1505;-54
2023/07/28 09:08:57;;;;;;;;;;;23.10;50.00;;;;;;1545921;75;1485;-52
2023/07/28 09:11:02;;;;;;;;;;;23.10;50.40;;;;;;1545010;75;1495;-53
2023/07/28 09:13:04;;;;;;;;;;;23.10;50.20;;;;;;1546331;75;1472;-53
2023/07/28 09:15:06;;;;;;;;;;;23.10;50.20;;;;;;1543215;75;1939;-52
2023/07/28 09:17:09;;;;;;;;;;;23.00;50.50;;;;;;1536637;75;1590;-52
2023/07/28 09:19:11;;;;;;;;;;;23.00;50.30;;;;;;1549430;75;1353;-54
2023/07/28 09:21:20;;;;;;;;;;;23.10;50.50;;;;;;1582307;73;1486;-54
2023/07/28 09:23:29;;;;;;;;;;;23.00;50.40;;;;;;1594863;73;1490;-51
2023/07/28 09:25:31;;;;;;;;;;;23.10;50.60;;;;;;1590896;73;1321;-53
2023/07/28 09:27:33;;;;;;;;;;;23.10;50.40;;;;;;1591770;73;1457;-52
2023/07/28 09:29:34;;;;;;;;;;;23.10;50.40;;;;;;1580866;73;1491;-53
2023/07/28 09:31:36;;;;;;;;;;;23.10;50.60;;;;;;1565191;75;1517;-50
2023/07/28 09:33:46;;;;;;;;;;;23.10;51.00;;;;;;1580090;73;1278;-52
2023/07/28 09:35:49;;;;;;;;;;;23.20;51.00;;;;;;1585272;73;1949;-54
2023/07/28 09:37:52;;;;;;;;;;;23.10;50.90;;;;;;1591526;73;1502;-55
2023/07/28 09:39:54;;;;;;;;;;;23.10;50.50;;;;;;1589215;73;1236;-54
2023/07/28 09:41:58;;;;;;;;;;;23.20;50.70;;;;;;1592067;73;1064;-53
2023/07/28 09:44:00;;;;;;;;;;;23.10;50.60;;;;;;1587915;73;1334;-55
2023/07/28 09:46:07;;;;;;;;;;;23.10;50.50;;;;;;1589919;73;1488;-58
2023/07/28 09:48:10;;;;;;;;;;;23.10;50.70;;;;;;1592958;73;1510;-50
2023/07/28 09:50:12;;;;;;;;;;;23.20;50.40;;;;;;1580776;73;1236;-54
2023/07/28 09:52:14;;;;;;;;;;;23.10;50.40;;;;;;1579965;73;1486;-54
2023/07/28 09:54:18;;;;;;;;;;;23.10;50.30;;;;;;1591702;73;1490;-51
2023/07/28 09:56:20;;;;;;;;;;;23.10;50.30;;;;;;1591033;73;1929;-51
2023/07/28 09:58:22;;;;;;;;;;;23.10;50.40;;;;;;1590234;73;1457;-48
2023/07/28 10:00:24;;;;;;;;;;;23.10;50.40;;;;;;1582338;73;1494;-53
2023/07/28 10:02:26;;;;;;;;;;;23.10;50.40;;;;;;1581064;73;1523;-52
2023/07/28 10:04:27;;;;;;;;;;;23.10;50.40;;;;;;1588930;73;1495;-51
2023/07/28 10:06:30;;;;;;;;;;;23.10;51.20;;;;;;1586435;73;1477;-48
2023/07/28 10:08:32;;;;;;;;;;;23.10;51.00;;;;;;1583322;73;1352;-52
2023/07/28 10:10:34;;;;;;;;;;;23.10;50.90;;;;;;1592166;73;1454;-52
2023/07/28 10:12:42;;;;;;;;;;;23.20;51.00;;;;;;1582737;73;1462;-51
2023/07/28 10:14:46;;;;;;;;;;;23.10;51.00;;;;;;1582361;73;1930;-55
2023/07/28 10:16:48;;;;;;;;;;;23.20;51.00;;;;;;1577612;73;1400;-53
2023/07/28 10:18:56;;;;;;;;;;;23.20;51.00;;;;;;1579249;73;1339;-51
2023/07/28 10:21:00;;;;;;;;;;;23.20;51.00;;;;;;1579349;73;1091;-54
2023/07/28 10:23:15;;;;;;;;;;;23.10;51.00;;;;;;1588558;73;1918;-54
2023/07/28 10:25:19;;;;;;;;;;;23.10;51.00;;;;;;1591698;73;1072;-53
2023/07/28 10:27:31;;;;;;;;;;;23.20;51.10;;;;;;1596220;73;1695;-51
2023/07/28 10:29:32;;;;;;;;;;;23.10;51.10;;;;;;1580143;73;1149;-51
2023/07/28 10:31:34;;;;;;;;;;;23.10;51.20;;;;;;1578999;74;1446;-54
2023/07/28 10:33:40;;;;;;;;;;;23.20;51.20;;;;;;1582010;73;1427;-55
2023/07/28 10:35:43;;;;;;;;;;;23.10;51.10;;;;;;1583106;73;1930;-54
2023/07/28 10:37:46;;;;;;;;;;;23.20;51.20;;;;;;1581654;73;1916;-52
2023/07/28 10:39:47;;;;;;;;;;;23.20;51.30;;;;;;1588059;73;1475;-51
2023/07/28 10:41:57;;;;;;;;;;;23.20;51.30;;;;;;1587685;73;1524;-51
2023/07/28 10:43:59;;;;;;;;;;;23.10;51.30;;;;;;1584966;73;1958;-55
2023/07/28 10:46:01;;;;;;;;;;;23.20;52.30;;;;;;1577172;73;1473;-54
2023/07/28 10:48:03;;;;;;;;;;;23.20;52.60;;;;;;1582911;73;1466;-52
2023/07/28 10:50:06;;;;;;;;;;;23.20;52.30;;;;;;1591714;73;1475;-54
2023/07/28 10:52:08;;;;;;;;;;;23.20;52.20;;;;;;1588416;73;1472;-55
2023/07/28 10:54:10;;;;;;;;;;;23.20;52.10;;;;;;1579913;73;1571;-52
2023/07/28 10:56:13;;;;;;;;;;;23.20;52.30;;;;;;1591873;73;1947;-51
2023/07/28 10:58:15;;;;;;;;;;;23.20;52.30;;;;;;1584955;73;1459;-52
2023/07/28 11:00:17;;;;;;;;;;;23.20;52.30;;;;;;1584377;73;1519;-55
2023/07/28 11:02:20;;;;;;;;;;;23.20;52.00;;;;;;1584775;73;1466;-59
2023/07/28 11:04:23;;;;;;;;;;;23.20;52.10;;;;;;1585460;73;1263;-60
2023/07/28 11:06:25;;;;;;;;;;;23.20;52.20;;;;;;1577117;73;1079;-64
2023/07/28 11:08:27;;;;;;;;;;;23.20;51.90;;;;;;1574142;73;1434;-62
2023/07/28 11:10:29;;;;;;;;;;;23.20;51.90;;;;;;1593397;73;1449;-62
2023/07/28 11:12:31;;;;;;;;;;;23.20;51.90;;;;;;1580538;73;1471;-62
2023/07/28 11:14:34;;;;;;;;;;;23.20;52.10;;;;;;1585655;73;1225;-59
2023/07/28 11:16:38;;;;;;;;;;;23.20;52.00;;;;;;1583269;73;1918;-60
2023/07/28 11:18:40;;;;;;;;;;;23.20;52.30;;;;;;1580016;73;1321;-60
2023/07/28 11:20:42;;;;;;;;;;;23.20;52.10;;;;;;1581702;73;1529;-60
2023/07/28 11:22:44;;;;;;;;;;;23.20;51.90;;;;;;1581752;73;1457;-59
2023/07/28 11:24:47;;;;;;;;;;;23.20;51.80;;;;;;1596544;73;1374;-58
2023/07/28 11:26:49;;;;;;;;;;;23.20;51.70;;;;;;1589728;72;1456;-59
2023/07/28 11:28:53;;;;;;;;;;;23.20;51.80;;;;;;1589763;73;1520;-57
2023/07/28 11:30:55;;;;;;;;;;;23.20;51.80;;;;;;1579631;73;1649;-58
2023/07/28 11:32:56;;;;;;;;;;;23.20;51.80;;;;;;1584910;73;1254;-56
2023/07/28 11:35:06;;;;;;;;;;;23.20;52.00;;;;;;1585173;73;1927;-57
2023/07/28 11:37:09;;;;;;;;;;;23.20;51.80;;;;;;1587889;73;1985;-55
2023/07/28 11:39:11;;;;;;;;;;;23.20;51.80;;;;;;1584105;73;1302;-57
2023/07/28 11:41:13;;;;;;;;;;;23.20;52.50;;;;;;1591950;73;1260;-56
2023/07/28 11:43:15;;;;;;;;;;;23.20;52.00;;;;;;1578201;73;1083;-57
2023/07/28 11:45:22;;;;;;;;;;;23.30;51.90;;;;;;1583079;73;1497;-55
2023/07/28 11:47:21;;;;;;;;;;;23.20;51.70;;;;;;1580300;73;1541;-55
2023/07/28 11:49:23;;;;;;;;;;;23.20;51.80;;;;;;1588013;73;1513;-54
2023/07/28 11:51:25;;;;;;;;;;;23.30;52.20;;;;;;1578499;73;1586;-56
2023/07/28 11:53:27;;;;;;;;;;;23.20;51.90;;;;;;1588542;73;1374;-55
2023/07/28 11:55:29;;;;;;;;;;;23.30;52.00;;;;;;1532855;76;1931;-55
2023/07/28 11:57:32;;;;;;;;;;;23.30;52.00;;;;;;1528784;76;1112;-56
2023/07/28 11:59:34;;;;;;;;;;;23.20;51.70;;;;;;1532833;76;1760;-54
2023/07/28 12:01:36;;;;;;;;;;;23.30;51.80;;;;;;1539379;76;1511;-57
2023/07/28 12:03:38;;;;;;;;;;;23.20;51.60;;;;;;1551069;75;1157;-54
2023/07/28 12:05:40;;;;;;;;;;;23.20;51.70;;;;;;1541895;75;1536;-53
2023/07/28 12:07:44;;;;;;;;;;;23.30;51.70;;;;;;1544647;75;1878;-55